LFQM weather

Besançon-La Vèze Airport
Besançon/La Vèze, Bourgogne-Franche-Comté, France

Public forecast

Using degrees Celsius for public forecast. Weather courtesy of forecast.io.

Closest aviation weather report (METAR) to Besançon-La Vèze Airport

Closest report is Dole-Tavaux Airport, 28.3 nm (52.3 km) WSW. Retrieved 2020/04/03 00:30 UTC (28 minutes ago):

LFGJ 030030Z AUTO 34003KT CAVOK 04/M01 Q1016 NOSIG

Closest aviation forecast (TAF) to Besançon-La Vèze Airport

Closest forecast is Luxeuil-Saint-Sauveur (BA 116) Air Base, 36.4 nm (67.5 km) NNE. Retrieved 2020/04/02 21:00 UTC (4 hours ago):

TAF LFSX 022000Z 0221/0321 32005KT CAVOK